createdAt,value
2019-03-27T00:01:47.302Z,64.70
2019-03-27T00:05:53.057Z,65.10
2019-03-27T00:09:58.957Z,64.90
2019-03-27T00:14:05.074Z,66.90
2019-03-27T00:18:10.967Z,67.20
2019-03-27T00:22:16.740Z,67.40
2019-03-27T00:26:22.645Z,67.20
2019-03-27T00:30:28.476Z,67.30
2019-03-27T00:34:34.162Z,66.90
2019-03-27T00:38:39.985Z,66.70
2019-03-27T00:42:45.988Z,66.80
2019-03-27T00:46:51.618Z,66.40
2019-03-27T00:50:57.528Z,66.50
2019-03-27T00:55:03.393Z,66.60
2019-03-27T00:59:09.326Z,65.80
2019-03-27T01:03:15.026Z,66.00
2019-03-27T01:07:20.554Z,65.80
2019-03-27T01:11:26.122Z,66.40
2019-03-27T01:15:39.697Z,66.00
2019-03-27T01:19:38.719Z,66.00
2019-03-27T01:23:44.485Z,66.30
2019-03-27T01:27:50.092Z,65.40
2019-03-27T01:31:55.559Z,65.30
2019-03-27T01:36:01.069Z,66.50
2019-03-27T01:40:06.849Z,67.00
2019-03-27T01:44:12.719Z,66.50
2019-03-27T01:48:18.220Z,67.70
2019-03-27T01:52:23.777Z,68.30
2019-03-27T01:56:29.252Z,69.40
2019-03-27T02:00:34.903Z,69.50
2019-03-27T02:04:40.751Z,69.60
2019-03-27T02:08:46.155Z,70.20
2019-03-27T02:12:51.874Z,70.20
2019-03-27T02:16:57.309Z,69.80
2019-03-27T02:21:03.184Z,69.30
2019-03-27T02:25:12.874Z,69.20
2019-03-27T02:29:18.893Z,71.10
2019-03-27T02:33:24.845Z,70.20
2019-03-27T02:37:30.564Z,70.70
2019-03-27T02:41:36.302Z,71.50
2019-03-27T02:45:42.255Z,70.80
2019-03-27T02:49:54.564Z,70.50
2019-03-27T02:54:00.131Z,70.20
2019-03-27T02:58:05.717Z,70.30
2019-03-27T03:02:11.156Z,70.70
2019-03-27T03:06:17.778Z,71.50
2019-03-27T03:10:23.427Z,69.90
2019-03-27T03:14:28.868Z,70.00
2019-03-27T03:18:34.446Z,70.60
2019-03-27T03:22:40.002Z,69.70
2019-03-27T03:26:50.240Z,70.10
2019-03-27T03:30:57.480Z,69.60
2019-03-27T03:35:02.994Z,69.70
2019-03-27T03:39:14.302Z,70.20
2019-03-27T03:43:19.777Z,70.70
2019-03-27T03:47:25.267Z,69.90
2019-03-27T03:51:31.334Z,70.30
2019-03-27T03:55:38.659Z,70.00
2019-03-27T03:59:44.817Z,70.00
2019-03-27T04:03:52.494Z,70.40
2019-03-27T04:07:58.397Z,69.60
2019-03-27T04:12:04.197Z,69.00
2019-03-27T04:16:11.777Z,69.10
2019-03-27T04:20:17.525Z,69.60
2019-03-27T04:24:23.323Z,68.70
2019-03-27T04:28:29.699Z,69.10
2019-03-27T04:32:39.094Z,69.30
2019-03-27T04:36:48.234Z,69.40
2019-03-27T04:40:54.024Z,68.40
2019-03-27T04:44:59.998Z,69.40
2019-03-27T04:49:07.692Z,69.60
2019-03-27T04:53:13.237Z,68.60
2019-03-27T04:57:18.926Z,69.00
2019-03-27T05:01:24.571Z,69.50
2019-03-27T05:05:43.426Z,69.50
2019-03-27T05:10:32.107Z,69.30
2019-03-27T05:14:37.554Z,69.70
2019-03-27T05:18:43.088Z,69.20
2019-03-27T05:22:48.530Z,68.20
2019-03-27T05:26:54.118Z,67.40
2019-03-27T05:30:59.518Z,67.30
2019-03-27T05:35:05.208Z,66.10
2019-03-27T05:39:10.661Z,66.30
2019-03-27T05:43:16.330Z,66.20
2019-03-27T05:47:22.702Z,66.30
2019-03-27T05:51:30.055Z,66.50
2019-03-27T05:55:35.527Z,65.90
2019-03-27T05:59:42.831Z,66.70
2019-03-27T06:03:49.274Z,65.40
2019-03-27T06:07:56.049Z,64.30
2019-03-27T06:12:02.515Z,63.90
2019-03-27T06:16:10.925Z,63.90
2019-03-27T06:20:17.305Z,63.60
2019-03-27T06:24:23.080Z,61.50
2019-03-27T06:28:33.782Z,61.50
2019-03-27T06:32:42.971Z,61.00
2019-03-27T06:36:48.490Z,61.60
2019-03-27T06:40:55.280Z,60.00
2019-03-27T06:45:04.286Z,60.40
2019-03-27T06:49:12.286Z,61.00
2019-03-27T06:53:21.220Z,60.90
2019-03-27T06:57:31.409Z,58.40
2019-03-27T07:01:37.333Z,58.60
2019-03-27T07:05:42.729Z,59.60
2019-03-27T07:09:50.855Z,58.00
2019-03-27T07:13:57.410Z,58.30
2019-03-27T07:18:03.918Z,57.60
2019-03-27T07:22:10.441Z,56.20
2019-03-27T07:26:15.991Z,55.70
2019-03-27T07:30:22.024Z,53.90
2019-03-27T07:34:27.466Z,54.10
2019-03-27T07:38:35.389Z,52.20
2019-03-27T07:42:41.675Z,51.90
2019-03-27T07:46:48.685Z,50.50
2019-03-27T07:50:56.079Z,48.90
2019-03-27T07:55:01.965Z,50.00
2019-03-27T07:59:08.416Z,48.60
2019-03-27T08:03:15.152Z,47.30
2019-03-27T08:07:27.010Z,47.50
2019-03-27T08:11:32.357Z,45.60
2019-03-27T08:15:40.893Z,45.30
2019-03-27T08:19:47.254Z,45.40
2019-03-27T08:23:53.625Z,45.20
2019-03-27T08:28:00.761Z,46.90
2019-03-27T08:32:07.409Z,44.60
2019-03-27T08:36:13.543Z,43.00
2019-03-27T08:40:19.884Z,44.60
2019-03-27T08:44:25.905Z,42.60
2019-03-27T08:48:32.607Z,44.00
2019-03-27T08:52:38.483Z,42.90
2019-03-27T08:56:44.582Z,42.20
2019-03-27T09:00:57.192Z,47.50
2019-03-27T09:05:03.521Z,43.80
2019-03-27T09:09:11.194Z,42.80
2019-03-27T09:13:18.390Z,41.40
2019-03-27T09:17:25.131Z,41.70
2019-03-27T09:21:32.005Z,41.70
2019-03-27T09:25:39.334Z,41.90
2019-03-27T09:29:46.128Z,41.70
2019-03-27T09:33:52.371Z,41.70
2019-03-27T09:37:58.169Z,41.40
2019-03-27T09:42:03.960Z,40.40
2019-03-27T09:46:09.865Z,40.80
2019-03-27T09:50:15.699Z,41.70
2019-03-27T09:54:21.621Z,41.50
2019-03-27T09:58:27.415Z,42.10
2019-03-27T10:02:33.190Z,42.50
2019-03-27T10:06:39.098Z,41.90
2019-03-27T10:10:44.918Z,41.30
2019-03-27T10:14:50.765Z,42.30
2019-03-27T10:18:56.652Z,43.90
2019-03-27T10:23:02.373Z,41.90
2019-03-27T10:27:08.071Z,40.20
2019-03-27T10:31:13.930Z,40.00
2019-03-27T10:35:19.903Z,41.10
2019-03-27T10:39:25.667Z,43.90
2019-03-27T10:43:31.587Z,46.40
2019-03-27T10:47:37.210Z,48.30
2019-03-27T10:51:43.085Z,48.50
2019-03-27T10:55:48.938Z,49.40
2019-03-27T10:59:55.842Z,47.40
2019-03-27T11:04:01.615Z,48.50
2019-03-27T11:08:11.086Z,45.80
2019-03-27T11:12:14.926Z,43.30
2019-03-27T11:16:20.817Z,43.00
2019-03-27T11:20:31.253Z,43.50
2019-03-27T11:24:34.311Z,44.20
2019-03-27T11:28:40.115Z,44.80
2019-03-27T11:33:04.509Z,44.60
2019-03-27T11:37:09.965Z,43.90
2019-03-27T11:41:15.549Z,43.90
2019-03-27T11:45:21.015Z,43.80
2019-03-27T11:49:26.512Z,42.70
2019-03-27T11:53:31.980Z,42.70
2019-03-27T11:57:38.098Z,43.90
2019-03-27T12:01:43.990Z,45.70
2019-03-27T12:05:49.612Z,47.50
2019-03-27T12:09:55.081Z,48.40
2019-03-27T12:14:01.227Z,50.30
2019-03-27T12:18:07.375Z,50.60
2019-03-27T12:22:13.060Z,51.80
2019-03-27T12:26:18.896Z,50.70
2019-03-27T12:30:26.796Z,51.20
2019-03-27T12:34:32.520Z,51.40
2019-03-27T12:38:38.181Z,49.80
2019-03-27T12:42:44.130Z,50.40
2019-03-27T12:46:51.835Z,47.50
2019-03-27T12:50:57.339Z,47.60
2019-03-27T12:55:03.275Z,47.10
2019-03-27T12:59:09.061Z,46.50
2019-03-27T13:03:14.794Z,46.60
2019-03-27T13:07:20.563Z,46.30
2019-03-27T13:11:26.264Z,46.60
2019-03-27T13:15:32.019Z,45.40
2019-03-27T13:19:37.882Z,46.30
2019-03-27T13:23:43.626Z,47.30
2019-03-27T13:27:49.337Z,46.90
2019-03-27T13:31:55.219Z,48.70
2019-03-27T13:36:01.110Z,49.70
2019-03-27T13:40:08.110Z,49.60
2019-03-27T13:44:13.556Z,48.10
2019-03-27T13:48:19.087Z,46.60
2019-03-27T13:52:24.629Z,46.20
2019-03-27T13:56:30.166Z,46.10
2019-03-27T14:00:35.974Z,44.90
2019-03-27T14:04:41.654Z,44.70
2019-03-27T14:08:47.078Z,43.90
2019-03-27T14:12:54.413Z,44.40
2019-03-27T14:16:59.846Z,46.20
2019-03-27T14:21:05.462Z,46.90
2019-03-27T14:25:11.550Z,47.80
2019-03-27T14:29:17.012Z,47.30
2019-03-27T14:33:31.337Z,47.90
2019-03-27T14:37:44.544Z,47.60
2019-03-27T14:42:08.929Z,48.30
2019-03-27T14:46:20.370Z,48.70
2019-03-27T14:50:25.951Z,49.10
2019-03-27T14:54:31.614Z,48.30
2019-03-27T14:58:37.103Z,49.10
2019-03-27T15:02:42.562Z,47.70
2019-03-27T15:06:48.166Z,48.80
2019-03-27T15:10:53.898Z,48.90
2019-03-27T15:14:59.492Z,50.80
2019-03-27T15:19:05.125Z,51.80
2019-03-27T15:23:10.714Z,51.70
2019-03-27T15:27:16.240Z,51.80
2019-03-27T15:31:21.911Z,51.80
2019-03-27T15:35:27.454Z,51.30
2019-03-27T15:39:32.930Z,50.90
2019-03-27T15:43:38.502Z,51.60
2019-03-27T15:47:43.974Z,51.40
2019-03-27T15:51:49.539Z,53.10
2019-03-27T15:55:55.005Z,55.50
2019-03-27T16:00:00.535Z,54.60
2019-03-27T16:04:06.010Z,53.80
2019-03-27T16:08:11.568Z,54.10
2019-03-27T16:12:17.013Z,52.80
2019-03-27T16:16:22.467Z,52.60
2019-03-27T16:20:28.040Z,52.80
2019-03-27T16:24:33.562Z,53.40
2019-03-27T16:28:39.334Z,54.80
2019-03-27T16:32:44.842Z,54.30
2019-03-27T16:36:50.562Z,55.40
2019-03-27T16:40:56.038Z,55.70
2019-03-27T16:45:02.309Z,57.00
2019-03-27T16:49:08.315Z,58.90
2019-03-27T16:53:14.039Z,58.80
2019-03-27T16:57:19.518Z,61.00
2019-03-27T17:01:25.307Z,59.20
2019-03-27T17:05:30.845Z,60.00
2019-03-27T17:09:36.542Z,60.90
2019-03-27T17:13:42.259Z,62.70
2019-03-27T17:17:47.931Z,63.00
2019-03-27T17:21:53.395Z,64.50
2019-03-27T17:25:59.151Z,64.40
2019-03-27T17:30:05.542Z,65.40
2019-03-27T17:34:11.119Z,65.30
2019-03-27T17:38:16.761Z,66.80
2019-03-27T17:42:22.239Z,66.70
2019-03-27T17:46:28.171Z,67.70
2019-03-27T17:50:33.787Z,69.00
2019-03-27T17:54:39.287Z,69.00
2019-03-27T17:58:44.783Z,70.10
2019-03-27T18:02:50.408Z,70.00
2019-03-27T18:06:55.912Z,69.70
2019-03-27T18:11:01.588Z,71.20
2019-03-27T18:15:07.729Z,72.10
2019-03-27T18:19:13.162Z,72.80
2019-03-27T18:23:18.808Z,74.20
2019-03-27T18:27:24.277Z,74.90
2019-03-27T18:31:29.946Z,75.60
2019-03-27T18:35:35.778Z,76.60
2019-03-27T18:39:41.559Z,77.10
2019-03-27T18:43:47.051Z,77.10
2019-03-27T18:47:52.820Z,78.20
2019-03-27T18:51:59.814Z,78.60
2019-03-27T18:56:05.988Z,79.00
2019-03-27T19:00:11.815Z,80.20
2019-03-27T19:04:17.422Z,81.10
2019-03-27T19:08:22.938Z,83.30
2019-03-27T19:12:28.637Z,83.60
2019-03-27T19:16:34.114Z,84.10
2019-03-27T19:20:39.761Z,84.10
2019-03-27T19:24:45.329Z,84.30
2019-03-27T19:28:53.791Z,86.50
2019-03-27T19:32:57.986Z,86.80
2019-03-27T19:37:03.762Z,87.10
2019-03-27T19:41:09.292Z,87.70
2019-03-27T19:45:15.014Z,87.60
2019-03-27T19:49:20.502Z,86.60
2019-03-27T19:53:26.039Z,88.20
2019-03-27T19:57:31.510Z,88.10
2019-03-27T20:01:37.002Z,88.10
2019-03-27T20:05:42.475Z,88.50
2019-03-27T20:09:48.174Z,88.70
2019-03-27T20:13:53.790Z,89.80
2019-03-27T20:17:59.302Z,89.80
2019-03-27T20:22:04.864Z,90.60
2019-03-27T20:26:10.468Z,90.60
2019-03-27T20:30:16.731Z,91.20
2019-03-27T20:34:22.871Z,90.80
2019-03-27T20:38:28.723Z,90.50
2019-03-27T20:42:36.002Z,90.70
2019-03-27T20:46:41.900Z,90.50
2019-03-27T20:50:47.416Z,90.60
2019-03-27T20:54:55.361Z,90.80
2019-03-27T20:59:01.437Z,90.70
2019-03-27T21:03:07.684Z,90.90
2019-03-27T21:07:13.316Z,90.70
2019-03-27T21:11:18.846Z,91.10
2019-03-27T21:15:24.298Z,91.20
2019-03-27T21:19:29.877Z,90.90
2019-03-27T21:23:36.343Z,91.30
2019-03-27T21:27:41.818Z,91.50
2019-03-27T21:31:48.260Z,91.70
2019-03-27T21:35:53.855Z,91.80
2019-03-27T21:40:00.466Z,92.50
2019-03-27T21:44:07.061Z,92.40
2019-03-27T21:48:12.640Z,92.20
2019-03-27T21:52:18.134Z,92.20
2019-03-27T21:56:23.593Z,92.60
2019-03-27T22:00:39.767Z,92.70
2019-03-27T22:04:45.208Z,92.50
2019-03-27T22:08:50.689Z,92.40
2019-03-27T22:12:56.281Z,92.50
2019-03-27T22:17:01.722Z,92.70
2019-03-27T22:21:07.289Z,93.10
2019-03-27T22:25:12.885Z,93.50
2019-03-27T22:29:18.348Z,93.40
2019-03-27T22:33:23.882Z,93.20
2019-03-27T22:37:29.414Z,93.30
2019-03-27T22:41:34.854Z,93.40
2019-03-27T22:45:40.371Z,93.60
2019-03-27T22:49:45.909Z,93.80
2019-03-27T22:53:51.348Z,93.80
2019-03-27T22:57:56.954Z,93.80
2019-03-27T23:02:02.647Z,93.50
2019-03-27T23:06:08.095Z,93.30
2019-03-27T23:10:13.895Z,93.30
2019-03-27T23:14:19.321Z,93.20
2019-03-27T23:18:24.919Z,93.50
2019-03-27T23:22:30.454Z,93.30
2019-03-27T23:26:36.264Z,93.60
2019-03-27T23:30:41.773Z,93.70
2019-03-27T23:34:47.232Z,94.20
2019-03-27T23:38:52.690Z,94.20
2019-03-27T23:42:59.068Z,94.00
2019-03-27T23:47:05.247Z,93.70
2019-03-27T23:51:10.822Z,94.20
2019-03-27T23:55:16.254Z,94.40
2019-03-27T23:59:21.727Z,94.10
